Terminal Aerodrome Forecast
Issued by NWS Brownsville, TX

Home | Current Version | Previous Version | Text Only | Print | Product List | Glossary On
Versions: 1 2 3 4 5 6 7 8 9 10 11 12 13 14 15
000
FTUS44 KBRO 261123
TAFBRO
TAF
KBRO 261123Z 2612/2712 15009KT P6SM OVC015
     FM261500 15015G22KT P6SM SCT030
     FM270100 13010KT P6SM SCT020=

USA.gov is the U.S. government's official web portal to all federal, state and local government web resources and services.